New Salisbury, IN

4:11 PM EDT on July 04, 2015 (GMT -0400)
R Place, Harrison county, IN | | Change Station
CLOSE
Current Station
Personal Weather Station
Location: New Salisbury, IN
Elevation: 731 ft
Nearby Weather Stations

Elev 731 ft 38.32 °N, 86.12 °W | Updated 1 second ago

Mostly Cloudy
Mostly Cloudy
87.6 °F
Feels Like 90 °F
N
2.0
Wind Variable Wind from East
Gusts 3.1 mph

Today
High -- | Low -- °F
--% Chance of Precip.
Yesterday
High -- | Low -- °F
Precip. -- in
6:25 AM 9:11 PM
Waning Gibbous, 90% visible
Pressure 29.97 in
Visibility 9.0 miles
Clouds Scattered Clouds 4500 ft
Mostly Cloudy 25000 ft
Heat Index 90 °F
Dew Point 66 °F
Humidity 49%
Rainfall 0.00 in
Snow Depth Not available.
UV 5 out of 12
Pollen 2.30 out of 12
Air Quality Not available.
Flu Activity Not available.
METAR KSDF 041956Z 00000KT 9SM SCT045 BKN250 28/18 A2998 RMK AO2 SLP147 T02830183 $

More Conditions Fewer Conditions

Pressure 29.97 in
Visibility 9.0 miles
Clouds Scattered Clouds 4500 ft
Mostly Cloudy 25000 ft
Heat Index 90 °F
Dew Point 66 °F
Humidity 49%
Rainfall 0.00 in
Snow Depth Not available.
UV 5 out of 12
Pollen 2.30 out of 12
Air Quality Not available.
Flu Activity Not available.
METAR KSDF 041956Z 00000KT 9SM SCT045 BKN250 28/18 A2998 RMK AO2 SLP147 T02830183 $

More Conditions Fewer Conditions

10-Day Weather Forecast

×

Almanac

Astronomy

Jul. 04, 2015 Rise Set
Actual Time
Civil Twilight
Nautical Twilight
Astronomical Twilight
Moon
Length of Visible Light
Length of Day
Tomorrow will be .
, % of the Moon is Illuminated

Today's Extremes

State Highs State Lows

Community

WunderPhotos

Upload Photos

1,835,085 photos uploaded!

WunderBlogs® & News

Nearby

Air Quality

  Air Quality AQ Index Pollutant
Not available.

Snow Depth

Station Depth Elevation

Earthquake Activity

City Distance Mag. Time & Date
Minimum magnitude displayed is 2.5.

Coastal Water Temperatures

Place Temperature

Stations

Nearby Weather Stations

Station Location Temp. Windchill Dew Point Humidity Wind Precip. Elev Updated Type